Terminal Aerodrome Forecast
Issued by NWS Portland, OR

Home | Current Version | Previous Version | Text Only | Print | Product List | Glossary On
Versions: 1 2 3 4 5 6 7 8 9 10 11 12
000
FTUS46 KPQR 231131
TAFTTD
TAF
KTTD 231131Z 2312/2412 27003KT P6SM OVC009
     FM231800 28005KT P6SM BKN100
     FM240900 26003KT P6SM BKN020=

USA.gov is the U.S. government's official web portal to all federal, state and local government web resources and services.